Time;durP1;ratioP1;P1;durP2;ratioP2;P2;SDS_P1;SDS_P2;PMS_P1;PMS_P2;Temp;Humidity;BMP_temperature;BMP_pressure;BME280_temperature;BME280_humidity;BME280_pressure;Samples;Min_cycle;Max_cycle;Signal;HPM_P1;HPM_P2
2022/01/17 00:01:08;;;;;;;25.60;14.70;;;;;;;4.01;87.10;100668.30;1558295;90;20937;-78
2022/01/17 00:03:35;;;;;;;35.08;17.92;;;;;;;4.04;87.11;100667.47;1540218;90;20966;-78
2022/01/17 00:06:01;;;;;;;31.17;16.52;;;;;;;4.07;87.13;100654.72;1554864;90;21106;-78
2022/01/17 00:08:28;;;;;;;32.98;16.73;;;;;;;4.09;87.13;100651.75;1545933;90;21653;-78
2022/01/17 00:10:54;;;;;;;27.80;16.77;;;;;;;4.11;87.12;100643.67;1565531;90;21524;-78
2022/01/17 00:13:28;;;;;;;29.12;16.55;;;;;;;4.13;87.14;100631.75;1559284;90;21137;-78
2022/01/17 00:16:07;;;;;;;34.50;17.42;;;;;;;4.15;87.13;100619.41;1550692;90;21112;-78
2022/01/17 00:19:30;;;;;;;28.80;17.37;;;;;;;4.16;87.12;100621.55;1575786;89;21124;-78
2022/01/17 00:20:56;;;;;;;27.90;15.20;;;;;;;4.18;87.12;100626.23;1545155;90;21080;-78
2022/01/17 00:23:22;;;;;;;22.42;14.53;;;;;;;4.20;87.13;100627.10;1532995;90;21657;-78
2022/01/17 00:25:49;;;;;;;25.40;15.15;;;;;;;4.21;87.11;100614.32;1566466;90;21125;-78
2022/01/17 00:28:15;;;;;;;24.57;13.95;;;;;;;4.21;87.11;100606.64;1548586;90;21168;-78
2022/01/17 00:30:41;;;;;;;19.70;13.67;;;;;;;4.22;87.10;100594.70;1570776;90;21100;-78
2022/01/17 00:33:07;;;;;;;22.10;14.13;;;;;;;4.22;87.09;100594.28;1558678;90;21329;-78
2022/01/17 00:35:33;;;;;;;24.75;13.48;;;;;;;4.24;87.09;100584.06;1568885;90;21174;-78
2022/01/17 00:37:59;;;;;;;24.32;13.25;;;;;;;4.26;87.10;100590.05;1589691;90;21079;-78
2022/01/17 00:40:25;;;;;;;23.18;12.07;;;;;;;4.27;87.10;100595.61;1598352;89;21095;-78
2022/01/17 00:42:51;;;;;;;23.20;13.05;;;;;;;4.29;87.09;100574.72;1559893;89;21175;-78
2022/01/17 00:45:24;;;;;;;19.57;12.77;;;;;;;4.29;87.08;100574.72;1545736;90;20981;-78
2022/01/17 00:47:45;;;;;;;21.35;12.28;;;;;;;4.32;87.10;100568.36;1568178;90;21084;-78
2022/01/17 00:50:11;;;;;;;24.05;12.00;;;;;;;4.34;87.06;100569.23;1552636;90;21014;-78
2022/01/17 00:52:37;;;;;;;19.77;11.53;;;;;;;4.34;87.06;100561.55;1576950;89;20961;-78
2022/01/17 00:55:04;;;;;;;17.50;11.27;;;;;;;4.34;87.05;100557.70;1564611;90;21639;-78
2022/01/17 00:57:31;;;;;;;19.70;11.00;;;;;;;4.35;87.05;100554.72;1590722;89;21023;-78
2022/01/17 00:59:57;;;;;;;17.27;10.93;;;;;;;4.34;87.03;100535.95;1555068;90;21486;-78
2022/01/17 01:02:23;;;;;;;19.67;11.37;;;;;;;4.35;87.04;100544.48;1581219;90;21001;-78
2022/01/17 01:04:49;;;;;;;16.87;10.43;;;;;;;4.36;87.05;100547.05;1600190;89;21529;-78
2022/01/17 01:07:15;;;;;;;19.77;10.90;;;;;;;4.37;87.06;100556.88;1584441;89;20961;-78
2022/01/17 01:10:01;;;;;;;19.80;11.10;;;;;;;4.38;87.04;100559.87;1572020;90;21028;-78
2022/01/17 01:12:15;;;;;;;20.95;10.40;;;;;;;4.39;87.05;100530.44;1596728;89;20960;-78
2022/01/17 01:14:43;;;;;;;16.70;10.48;;;;;;;4.41;87.05;100554.78;1568845;89;21015;-78
2022/01/17 01:17:19;;;;;;;15.13;10.05;;;;;;;4.43;87.05;100549.25;1584358;90;20985;-78
2022/01/17 01:19:41;;;;;;;18.45;10.35;;;;;;;4.44;87.05;100536.88;1579410;87;21349;-78
2022/01/17 01:27:55;;;;;;;17.23;9.88;;;;;;;4.50;87.02;100531.80;1596211;89;20952;-78
2022/01/17 01:30:18;;;;;;;16.00;9.80;;;;;;;4.51;87.00;100524.14;1563245;89;21450;-78
2022/01/17 01:32:49;;;;;;;15.15;8.60;;;;;;;4.52;86.99;100514.33;1607907;89;21291;-78
2022/01/17 01:35:16;;;;;;;17.00;8.50;;;;;;;4.53;86.98;100523.73;1552147;90;21058;-78
2022/01/17 01:37:44;;;;;;;14.38;8.05;;;;;;;4.55;86.96;100507.95;1512221;93;21018;-78
2022/01/17 01:40:11;;;;;;;11.80;7.80;;;;;;;4.57;86.97;100508.81;1582580;90;21001;-78
2022/01/17 01:42:37;;;;;;;13.08;7.37;;;;;;;4.59;86.92;100518.64;1550632;92;20926;-78
2022/01/17 01:45:07;;;;;;;14.05;7.25;;;;;;;4.61;86.93;100509.70;1552377;90;21015;-79
2022/01/17 01:47:33;;;;;;;16.52;7.17;;;;;;;4.61;86.86;100483.66;1548957;92;20914;-78
2022/01/17 01:49:59;;;;;;;13.85;7.30;;;;;;;4.64;86.87;100487.95;1541076;90;21001;-78
2022/01/17 01:52:25;;;;;;;;;;;;;;;4.64;86.82;100481.13;1559951;92;21109;-78
2022/01/17 01:54:52;;;;;;;14.15;6.90;;;;;;;4.65;86.70;100468.75;1585745;89;20374;-78
2022/01/17 01:57:18;;;;;;;9.23;5.83;;;;;;;4.66;86.79;100472.16;1554990;89;21536;-78
2022/01/17 01:59:44;;;;;;;10.38;5.83;;;;;;;4.66;86.82;100455.52;1524348;92;21120;-78
2022/01/17 02:02:10;;;;;;;12.85;6.33;;;;;;;4.66;86.78;100465.77;1563103;90;21070;-78
2022/01/17 02:04:36;;;;;;;14.28;6.33;;;;;;;4.66;86.78;100437.59;1537652;90;21046;-78
2022/01/17 02:07:03;;;;;;;9.13;5.25;;;;;;;4.68;86.76;100458.09;1583590;90;21445;-78
2022/01/17 02:09:29;;;;;;;8.13;5.20;;;;;;;4.68;86.73;100456.35;1583274;90;21119;-78
2022/01/17 02:11:55;;;;;;;11.22;5.55;;;;;;;4.71;86.73;100468.32;1565487;90;21869;-78
2022/01/17 02:14:21;;;;;;;9.95;5.42;;;;;;;4.72;86.72;100459.78;1543783;92;21110;-78
2022/01/17 02:16:50;;;;;;;9.05;5.45;;;;;;;4.74;86.75;100459.38;1582840;90;21020;-78
2022/01/17 02:19:20;;;;;;;10.05;5.35;;;;;;;4.73;86.69;100453.81;1539271;90;22222;-78
2022/01/17 02:21:46;;;;;;;12.82;5.42;;;;;;;4.73;86.74;100454.67;1578814;90;21601;-78
2022/01/17 02:24:16;;;;;;;11.75;5.35;;;;;;;4.74;86.63;100447.84;1544512;91;21500;-78
2022/01/17 02:26:43;;;;;;;8.68;4.58;;;;;;;4.74;86.65;100437.59;1538470;90;20986;-78
2022/01/17 02:29:10;;;;;;;12.43;5.65;;;;;;;4.75;86.67;100447.00;1578165;90;21426;-78
2022/01/17 02:31:36;;;;;;;11.50;5.97;;;;;;;4.76;86.66;100439.32;1580636;90;21001;-78
2022/01/17 02:34:03;;;;;;;11.00;6.00;;;;;;;4.77;86.64;100427.37;1515078;92;28268;-78
2022/01/17 02:36:30;;;;;;;;;;;;;;;4.78;86.61;100429.94;1564806;91;21095;-78
2022/01/17 02:38:57;;;;;;;7.72;4.85;;;;;;;4.77;86.56;100414.14;1580083;89;305998;-78
2022/01/17 02:41:29;;;;;;;7.62;4.12;;;;;;;4.77;86.61;100407.73;1574265;89;20990;-78
2022/01/17 02:43:56;;;;;;;6.87;4.40;;;;;;;4.78;86.59;100404.75;1590874;89;21004;-78
2022/01/17 02:46:25;;;;;;;8.55;4.15;;;;;;;4.78;86.54;100390.23;1586649;89;21468;-78
2022/01/17 02:48:53;;;;;;;8.48;4.03;;;;;;;4.80;86.53;100392.38;1571636;89;20914;-78
2022/01/17 02:51:19;;;;;;;5.45;3.75;;;;;;;4.80;86.54;100379.57;1563563;89;20921;-78
2022/01/17 02:53:45;;;;;;;6.85;4.28;;;;;;;4.81;86.50;100393.23;1584252;89;21304;-78
2022/01/17 02:56:12;;;;;;;6.12;3.98;;;;;;;4.81;86.52;100382.56;1589466;89;21548;-78
2022/01/17 02:58:40;;;;;;;5.35;3.40;;;;;;;4.81;86.48;100380.43;1582029;89;21078;-79
2022/01/17 03:01:20;;;;;;;4.72;3.58;;;;;;;4.82;86.47;100375.73;1563767;89;21403;-78
2022/01/17 03:03:47;;;;;;;7.55;2.42;;;;;;;4.82;86.49;100391.95;1586114;89;21554;-78
2022/01/17 03:06:14;;;;;;;6.60;3.05;;;;;;;4.82;86.37;100379.16;1567224;89;21081;-78
2022/01/17 03:08:41;;;;;;;5.25;2.60;;;;;;;4.83;86.37;100372.33;1577950;89;21530;-78
2022/01/17 03:11:12;;;;;;;8.55;2.05;;;;;;;4.84;86.37;100400.94;1580211;89;20979;-78
2022/01/17 03:13:39;;;;;;;8.80;2.10;;;;;;;4.85;86.34;100400.08;1571219;89;21591;-78
2022/01/17 03:16:15;;;;;;;4.85;2.10;;;;;;;4.87;86.30;100379.17;1587510;89;20936;-78
2022/01/17 03:18:46;;;;;;;5.80;1.55;;;;;;;4.88;86.28;100383.02;1588603;89;21338;-78
2022/01/17 03:21:15;;;;;;;5.28;1.45;;;;;;;4.89;86.04;100360.81;1575597;89;21442;-78
2022/01/17 03:23:41;;;;;;;4.97;1.42;;;;;;;4.90;86.17;100364.66;1557683;90;20947;-78
2022/01/17 03:26:08;;;;;;;4.17;1.67;;;;;;;4.91;86.12;100365.52;1586412;89;21573;-78
2022/01/17 03:28:34;;;;;;;3.47;1.52;;;;;;;4.90;86.06;100354.84;1591622;89;20895;-78
2022/01/17 03:31:00;;;;;;;3.25;1.52;;;;;;;4.90;85.99;100342.03;1544549;90;20970;-78
2022/01/17 03:33:27;;;;;;;7.50;1.67;;;;;;;4.89;85.97;100336.48;1583066;89;21367;-78
2022/01/17 03:35:53;;;;;;;3.33;1.45;;;;;;;4.88;85.98;100330.50;1577350;89;21403;-78
2022/01/17 03:38:24;;;;;;;3.83;1.72;;;;;;;4.88;85.96;100325.80;1551396;91;21374;-78
2022/01/17 03:40:51;;;;;;;5.95;1.65;;;;;;;4.88;85.97;100298.91;1564093;89;20975;-78
2022/01/17 03:43:19;;;;;;;4.37;1.80;;;;;;;4.88;85.95;100320.67;1573570;91;21409;-78
2022/01/17 03:45:46;;;;;;;4.37;1.67;;;;;;;4.87;85.91;100328.79;1574504;91;21839;-78
2022/01/17 03:48:13;;;;;;;5.35;1.42;;;;;;;4.86;85.89;100324.52;1552584;91;21064;-77
2022/01/17 03:50:40;;;;;;;4.47;1.47;;;;;;;4.87;85.85;100331.77;1560945;91;21140;-77
2022/01/17 03:53:06;;;;;;;4.25;1.62;;;;;;;4.85;85.81;100321.95;1573516;91;21136;-77
2022/01/17 03:55:34;;;;;;;3.80;1.50;;;;;;;4.84;85.84;100324.08;1574394;90;21614;-77
2022/01/17 03:58:06;;;;;;;8.95;1.50;;;;;;;4.83;85.83;100336.46;1512112;92;21621;-77
2022/01/17 04:00:43;;;;;;;5.22;1.30;;;;;;;4.82;85.84;100343.29;1557828;91;21104;-78
2022/01/17 04:03:10;;;;;;;4.62;1.10;;;;;;;4.81;85.78;100338.16;1549894;90;21105;-77
2022/01/17 04:05:37;;;;;;;6.03;1.80;;;;;;;4.78;85.75;100335.16;1529652;91;21810;-77
2022/01/17 04:08:04;;;;;;;6.03;1.65;;;;;;;4.75;85.71;100316.38;1553973;91;21168;-77
2022/01/17 04:10:30;;;;;;;4.62;1.37;;;;;;;4.73;85.73;100325.76;1545515;91;21593;-77
2022/01/17 04:13:01;;;;;;;6.45;1.12;;;;;;;4.72;85.60;100309.96;1554016;91;21087;-77
2022/01/17 04:15:23;;;;;;;7.40;1.27;;;;;;;4.70;85.65;100314.22;1566204;90;21663;-77
2022/01/17 04:17:50;;;;;;;5.33;1.37;;;;;;;4.69;85.71;100309.52;1573810;91;21508;-77
2022/01/17 04:20:25;;;;;;;5.40;1.10;;;;;;;4.68;85.69;100313.39;1540122;91;21104;-77
2022/01/17 04:22:53;;;;;;;9.33;1.77;;;;;;;4.66;85.62;100301.87;1559821;91;21805;-77
2022/01/17 04:25:18;;;;;;;6.85;1.70;;;;;;;4.65;85.60;100297.59;1572656;91;21591;-77
2022/01/17 04:27:44;;;;;;;3.10;0.93;;;;;;;4.64;85.58;100283.08;1553988;91;20994;-77
2022/01/17 04:30:13;;;;;;;11.03;1.40;;;;;;;4.62;85.57;100307.41;1545754;91;21528;-77
2022/01/17 04:32:41;;;;;;;5.12;1.00;;;;;;;4.62;85.60;100291.19;1564349;91;21020;-77
2022/01/17 04:35:09;;;;;;;14.93;1.40;;;;;;;4.62;85.55;100267.71;1576067;88;21468;-77
2022/01/17 04:37:36;;;;;;;4.05;1.10;;;;;;;4.61;85.37;100262.59;1542982;90;20986;-77
2022/01/17 04:40:03;;;;;;;9.15;1.45;;;;;;;4.62;85.52;100286.06;1540632;90;21422;-77
2022/01/17 04:42:30;;;;;;;8.40;1.15;;;;;;;4.61;85.48;100262.59;1560687;90;21616;-77
2022/01/17 04:45:08;;;;;;;8.50;1.02;;;;;;;4.60;85.48;100282.64;1572782;89;20993;-77
2022/01/17 04:47:37;;;;;;;10.03;1.55;;;;;;;4.61;85.49;100263.44;1570996;89;20966;-77
2022/01/17 04:50:06;;;;;;;6.80;1.60;;;;;;;4.61;85.47;100262.59;1538699;91;20942;-77
2022/01/17 04:52:35;;;;;;;7.70;1.42;;;;;;;4.61;85.46;100262.16;1573364;89;21422;-78
2022/01/17 04:55:03;;;;;;;7.62;1.45;;;;;;;4.62;85.41;100249.78;1568988;91;21001;-78
2022/01/17 04:57:33;;;;;;;4.03;1.17;;;;;;;4.63;85.39;100243.81;1569374;89;20978;-78
2022/01/17 04:59:59;;;;;;;6.10;1.30;;;;;;;4.64;85.38;100255.77;1562098;89;21004;-78
2022/01/17 05:02:25;;;;;;;6.73;2.13;;;;;;;4.64;85.34;100246.80;1569134;89;21451;-78
2022/01/17 05:04:51;;;;;;;6.72;1.47;;;;;;;4.64;85.24;100247.23;1572239;89;21002;-78
2022/01/17 05:07:18;;;;;;;11.78;1.70;;;;;;;4.64;85.21;100238.27;1561968;89;21067;-78
2022/01/17 05:09:45;;;;;;;8.05;1.42;;;;;;;4.64;85.32;100249.37;1568440;89;20952;-78
2022/01/17 05:12:12;;;;;;;6.40;1.05;;;;;;;4.64;85.29;100241.69;1572113;89;20977;-78
2022/01/17 05:14:41;;;;;;;3.83;1.25;;;;;;;4.65;85.25;100248.94;1563127;89;20917;-78
2022/01/17 05:17:24;;;;;;;9.23;1.55;;;;;;;4.66;85.23;100230.16;1562551;89;21065;-78
2022/01/17 05:19:49;;;;;;;7.22;1.40;;;;;;;4.67;85.27;100229.73;1559137;89;20917;-78
2022/01/17 05:22:17;;;;;;;7.72;1.55;;;;;;;4.67;85.17;100218.21;1570960;89;20962;-78
2022/01/17 05:24:43;;;;;;;5.25;1.30;;;;;;;4.68;85.20;100206.66;1541088;91;21008;-78
2022/01/17 05:27:09;;;;;;;6.53;1.50;;;;;;;4.69;85.15;100192.15;1565122;90;20929;-78
2022/01/17 05:29:35;;;;;;;7.95;2.40;;;;;;;4.66;85.19;100177.66;1554792;90;21355;-78
2022/01/17 05:32:02;;;;;;;5.22;1.47;;;;;;;4.64;85.13;100166.56;1573698;89;20989;-78
2022/01/17 05:34:28;;;;;;;8.40;2.10;;;;;;;4.62;85.17;100173.39;1585519;89;20905;-78
2022/01/17 05:36:54;;;;;;;15.07;3.33;;;;;;;4.60;85.17;100160.59;1577907;88;21631;-78
2022/01/17 05:39:21;;;;;;;11.00;4.58;;;;;;;4.57;85.08;100153.33;1541733;91;21077;-78
2022/01/17 05:41:47;;;;;;;19.45;6.03;;;;;;;4.54;85.19;100168.27;1557475;91;21137;-77
2022/01/17 05:44:13;;;;;;;20.23;6.40;;;;;;;4.50;85.18;100149.91;1572091;91;21139;-77
2022/01/17 05:46:39;;;;;;;15.60;4.37;;;;;;;4.48;85.22;100146.92;1530904;92;21093;-77
2022/01/17 05:49:05;;;;;;;9.75;3.12;;;;;;;4.46;85.20;100145.64;1548487;91;21157;-77
2022/01/17 05:51:31;;;;;;;14.23;4.25;;;;;;;4.42;85.21;100128.56;1565823;91;21104;-77
2022/01/17 05:53:57;;;;;;;12.05;3.30;;;;;;;4.39;85.24;100105.95;1562352;91;21137;-77
2022/01/17 05:56:23;;;;;;;17.50;6.80;;;;;;;4.36;85.26;100100.83;1533998;91;21080;-77
2022/01/17 05:58:49;;;;;;;17.30;6.22;;;;;;;4.32;85.30;100084.61;1565812;91;21139;-77
2022/01/17 06:01:16;;;;;;;20.30;6.95;;;;;;;4.27;85.26;100068.41;1573402;91;21058;-77
2022/01/17 06:03:42;;;;;;;18.67;5.70;;;;;;;4.24;85.30;100060.72;1516657;92;28784;-78
2022/01/17 06:06:08;;;;;;;16.00;5.47;;;;;;;4.20;85.29;100061.57;1554935;91;21824;-78
2022/01/17 06:08:34;;;;;;;9.47;3.30;;;;;;;4.17;85.36;100059.86;1573417;91;21061;-78
2022/01/17 06:11:01;;;;;;;9.90;2.30;;;;;;;4.14;85.32;100050.94;1573279;91;21159;-77
2022/01/17 06:13:28;;;;;;;12.33;2.05;;;;;;;4.13;85.40;100033.03;1514998;92;21177;-77
2022/01/17 06:15:54;;;;;;;13.32;3.30;;;;;;;4.11;85.41;100047.52;1564941;91;21114;-77
2022/01/17 06:18:20;;;;;;;7.30;2.00;;;;;;;4.09;85.40;100046.66;1573818;91;21039;-77
2022/01/17 06:20:46;;;;;;;10.68;2.67;;;;;;;4.07;85.36;100025.34;1493903;94;21202;-77
2022/01/17 06:23:12;;;;;;;6.60;2.47;;;;;;;4.05;85.41;100015.11;1522935;92;21157;-77
2022/01/17 06:25:38;;;;;;;4.40;1.72;;;;;;;4.04;85.39;100020.22;1549136;91;21131;-77
2022/01/17 06:28:04;;;;;;;6.47;2.00;;;;;;;4.03;85.42;100013.40;1545319;91;21009;-77
2022/01/17 06:30:31;;;;;;;7.42;1.25;;;;;;;4.01;85.43;100016.38;1558056;91;25278;-77
2022/01/17 06:32:57;;;;;;;5.83;1.47;;;;;;;3.99;85.42;100009.98;1534220;91;20965;-77
2022/01/17 06:35:23;;;;;;;3.62;1.50;;;;;;;3.98;85.52;99993.78;1553337;90;21978;-77
2022/01/17 06:37:51;;;;;;;6.22;1.90;;;;;;;3.97;85.50;99999.75;1553439;90;21140;-77
2022/01/17 06:40:19;;;;;;;8.85;2.75;;;;;;;3.96;85.45;99992.94;1551107;90;21092;-77
2022/01/17 06:42:45;;;;;;;7.67;2.27;;;;;;;3.96;85.49;99998.47;1560272;90;21010;-77
2022/01/17 06:45:13;;;;;;;9.03;1.80;;;;;;;3.96;85.54;99966.08;1564521;90;21032;-77
2022/01/17 06:47:40;;;;;;;7.17;1.32;;;;;;;3.97;85.52;99961.81;1526612;87;5001112;-77
2022/01/17 06:50:08;;;;;;;8.60;2.87;;;;;;;3.98;85.57;99943.05;1601328;88;20919;-77
2022/01/17 06:52:35;;;;;;;8.63;4.10;;;;;;;3.99;85.53;99943.48;1600312;88;21019;-77
2022/01/17 06:55:01;;;;;;;9.60;3.27;;;;;;;3.99;85.58;99951.16;1575513;88;20901;-77
2022/01/17 06:57:27;;;;;;;3.22;1.27;;;;;;;3.99;85.54;99936.66;1590848;88;20983;-78
2022/01/17 06:59:55;;;;;;;6.50;1.50;;;;;;;4.01;85.54;99943.48;1596033;88;21042;-78
2022/01/17 07:02:21;;;;;;;6.12;1.77;;;;;;;4.03;85.62;99934.10;1577721;89;20967;-78
2022/01/17 07:04:47;;;;;;;7.25;1.90;;;;;;;4.04;85.64;99958.83;1579344;89;21483;-78
2022/01/17 07:07:13;;;;;;;6.97;1.70;;;;;;;4.05;85.66;99970.34;1598388;88;21018;-78
2022/01/17 07:09:39;;;;;;;6.97;1.80;;;;;;;4.07;85.67;99981.85;1572603;89;21398;-78
2022/01/17 07:12:07;;;;;;;6.62;1.55;;;;;;;4.08;85.72;99975.46;1588439;88;20998;-78
2022/01/17 07:14:33;;;;;;;4.67;1.70;;;;;;;4.12;85.69;99953.28;1582188;88;20999;-78
2022/01/17 07:16:59;;;;;;;5.92;2.12;;;;;;;4.13;85.69;99965.23;1587614;88;20990;-78
2022/01/17 07:19:25;;;;;;;10.08;1.60;;;;;;;4.15;85.74;99971.20;1586108;88;20955;-78
2022/01/17 07:21:52;;;;;;;12.68;4.60;;;;;;;4.19;85.73;99962.63;1598171;88;21017;-78
2022/01/17 07:24:18;;;;;;;15.43;3.05;;;;;;;4.21;85.78;99954.53;1570382;89;21071;-77
2022/01/17 07:26:44;;;;;;;8.03;1.85;;;;;;;4.24;85.78;99926.38;1563593;89;20927;-77
2022/01/17 07:29:10;;;;;;;6.93;1.83;;;;;;;4.27;85.85;99909.74;1591469;88;20944;-78
2022/01/17 07:31:37;;;;;;;4.83;1.63;;;;;;;4.22;85.80;99863.69;1594159;88;22461;-78
2022/01/17 07:34:05;;;;;;;5.22;1.60;;;;;;;4.31;85.81;99856.42;1586529;88;21141;-78
2022/01/17 07:36:31;;;;;;;6.03;1.45;;;;;;;4.34;85.83;99847.45;1591511;88;21153;-78
2022/01/17 07:38:58;;;;;;;5.42;1.40;;;;;;;4.36;85.85;99853.42;1559642;89;21097;-78
2022/01/17 07:41:26;;;;;;;7.67;1.95;;;;;;;4.38;85.88;99852.13;1588052;88;21134;-78
2022/01/17 07:43:53;;;;;;;4.75;1.42;;;;;;;4.40;85.87;99870.47;1588778;88;21757;-77
2022/01/17 07:46:25;;;;;;;6.37;1.32;;;;;;;4.44;85.89;99837.61;1590199;88;21078;-77
2022/01/17 07:49:13;;;;;;;6.55;1.57;;;;;;;4.47;85.90;99864.48;1585220;88;21093;-77
2022/01/17 07:51:42;;;;;;;8.90;1.50;;;;;;;4.51;85.96;99857.64;1570447;89;21141;-77
2022/01/17 07:54:11;;;;;;;5.92;1.20;;;;;;;4.54;85.90;99848.23;1581038;88;21178;-77
2022/01/17 07:56:39;;;;;;;6.08;1.62;;;;;;;4.56;85.97;99845.24;1582894;88;21065;-77
2022/01/17 07:59:07;;;;;;;6.70;1.20;;;;;;;4.60;85.97;99825.60;1592766;88;22078;-77
2022/01/17 08:01:34;;;;;;;9.75;2.40;;;;;;;4.64;85.99;99838.38;1553590;90;20955;-77
2022/01/17 08:04:00;;;;;;;7.47;1.50;;;;;;;4.65;86.03;99851.61;1581920;88;21841;-77
2022/01/17 08:06:26;;;;;;;3.30;1.40;;;;;;;4.68;86.01;99884.00;1587077;88;20900;-77
2022/01/17 08:08:52;;;;;;;6.08;2.27;;;;;;;4.69;86.05;99857.97;1561982;89;22013;-77
2022/01/17 08:11:18;;;;;;;4.87;1.03;;;;;;;4.69;86.01;99874.61;1578974;88;21521;-77
2022/01/17 08:13:45;;;;;;;4.47;0.90;;;;;;;4.69;86.11;99870.34;1592361;88;21055;-77
2022/01/17 08:16:13;;;;;;;4.20;1.00;;;;;;;4.69;86.11;99870.34;1584287;88;21009;-77
2022/01/17 08:18:39;;;;;;;4.30;1.17;;;;;;;4.70;86.13;99863.51;1561797;89;20974;-77
2022/01/17 08:21:05;;;;;;;4.72;1.12;;;;;;;4.71;86.20;99859.66;1588259;88;20979;-77
2022/01/17 08:23:31;;;;;;;3.27;0.60;;;;;;;4.72;86.17;99870.75;1582575;88;20965;-77
2022/01/17 08:25:57;;;;;;;2.27;0.50;;;;;;;4.74;86.19;99837.88;1585531;88;20998;-77
2022/01/17 08:28:24;;;;;;;2.20;0.42;;;;;;;4.75;86.38;99851.53;1586674;88;22039;-77
2022/01/17 08:30:50;;;;;;;3.12;0.50;;;;;;;4.77;86.27;99866.47;1575577;88;21047;-77
2022/01/17 08:33:16;;;;;;;3.08;0.60;;;;;;;4.77;86.26;99869.88;1592165;88;21094;-77
2022/01/17 08:35:42;;;;;;;1.85;0.42;;;;;;;4.79;86.26;99880.12;1578192;89;20939;-77
2022/01/17 08:38:08;;;;;;;5.72;0.60;;;;;;;4.79;86.32;99896.77;1611183;88;21520;-77
2022/01/17 08:40:34;;;;;;;0.93;0.30;;;;;;;4.78;86.31;100025.25;1615229;87;20890;-77
2022/01/17 08:43:00;;;;;;;2.37;0.88;;;;;;;4.52;86.55;100067.98;1613605;87;20981;-77
2022/01/17 08:45:27;;;;;;;0.63;0.50;;;;;;;4.17;86.45;100065.41;1617384;87;20926;-77
2022/01/17 08:47:53;;;;;;;1.57;0.60;;;;;;;3.87;86.13;100090.11;1615287;87;21749;-77
2022/01/17 08:50:22;;;;;;;1.90;0.30;;;;;;;3.61;86.22;100101.55;1611283;87;21094;-77
2022/01/17 08:52:49;;;;;;;4.35;0.33;;;;;;;3.36;86.38;100121.87;1602484;88;21012;-77
2022/01/17 10:21:17;;;;;;;3.60;1.20;;;;;;;2.85;86.48;100365.84;1763966;78;28035;-72
2022/01/17 10:26:31;;;;;;;6.92;1.32;;;;;;;3.01;86.38;100397.52;1707383;82;21555;-73
2022/01/17 10:36:56;;;;;;;5.47;1.22;;;;;;;3.16;86.40;100407.45;1689721;83;21469;-73
2022/01/17 10:39:23;;;;;;;3.90;1.30;;;;;;;3.15;86.33;100408.72;1682571;83;21711;-72
2022/01/17 10:41:49;;;;;;;3.75;1.30;;;;;;;3.14;86.41;100407.00;1680385;83;21635;-72
2022/01/17 10:44:36;;;;;;;6.67;2.33;;;;;;;3.13;86.34;100430.84;1720507;82;21540;-72
2022/01/17 10:47:25;;;;;;;4.35;1.20;;;;;;;3.08;86.30;100437.63;1713989;82;21544;-73
2022/01/17 10:49:56;;;;;;;3.60;1.10;;;;;;;3.04;86.31;100455.88;1713678;83;21061;-73
2022/01/17 10:52:44;;;;;;;5.87;1.65;;;;;;;3.00;86.38;100479.67;1676991;83;21584;-73
2022/01/17 10:55:16;;;;;;;5.10;1.87;;;;;;;2.98;86.36;100458.36;1714656;81;21021;-72
2022/01/17 10:57:46;;;;;;;3.45;1.45;;;;;;;2.98;86.43;100469.86;1700939;83;21522;-73
2022/01/17 11:00:22;;;;;;;5.45;1.67;;;;;;;3.02;86.52;100446.07;1713820;83;21110;-73
2022/01/17 11:02:55;;;;;;;4.72;1.95;;;;;;;3.05;86.50;100461.43;1709725;83;21037;-73
2022/01/17 11:05:22;;;;;;;4.08;1.47;;;;;;;3.11;86.53;100460.65;1696741;82;20927;-73
2022/01/17 11:07:53;;;;;;;4.37;1.40;;;;;;;3.16;86.53;100462.80;1701081;82;21399;-73
2022/01/17 11:10:39;;;;;;;2.85;1.00;;;;;;;3.21;86.52;100456.05;1683034;83;20950;-73
2022/01/17 11:13:10;;;;;;;5.92;1.17;;;;;;;3.23;86.45;100469.70;1680382;84;21778;-73
2022/01/17 11:15:39;;;;;;;3.60;1.07;;;;;;;3.27;86.50;100467.62;1672076;84;21446;-73
2022/01/17 11:18:18;;;;;;;6.37;1.02;;;;;;;3.32;86.48;100460.44;1660145;84;21541;-73
2022/01/17 11:20:46;;;;;;;3.10;1.42;;;;;;;3.34;86.44;100488.56;1669501;84;21411;-73
2022/01/17 11:23:12;;;;;;;3.08;1.05;;;;;;;3.38;86.47;100509.48;1677150;84;20939;-73
2022/01/17 11:25:43;;;;;;;3.53;1.20;;;;;;;3.43;86.35;100511.67;1668875;85;20946;-73
2022/01/17 11:28:10;;;;;;;4.20;1.20;;;;;;;3.45;86.35;100507.44;1671763;85;21108;-73
2022/01/17 11:30:39;;;;;;;2.52;1.30;;;;;;;3.48;86.25;100514.28;1670031;85;21422;-73
2022/01/17 11:33:09;;;;;;;5.65;1.32;;;;;;;3.52;85.94;100513.47;1671502;84;21450;-73
2022/01/17 11:35:41;;;;;;;8.20;1.40;;;;;;;3.54;86.18;100521.59;1665767;84;21456;-71
2022/01/17 11:38:11;;;;;;;3.52;0.90;;;;;;;3.57;86.25;100515.23;1664480;84;20998;-71
2022/01/17 11:40:40;;;;;;;2.72;1.05;;;;;;;3.61;86.14;100522.10;1671550;83;21706;-72
2022/01/17 11:43:35;;;;;;;2.87;1.05;;;;;;;3.62;86.08;100508.90;1670867;85;20934;-72
2022/01/17 11:46:25;;;;;;;2.77;0.93;;;;;;;3.62;86.02;100508.48;1668294;85;21002;-72
2022/01/17 11:49:02;;;;;;;5.42;1.17;;;;;;;3.62;85.99;100516.57;1666553;84;21402;-72
2022/01/17 11:51:47;;;;;;;6.08;1.32;;;;;;;3.62;85.80;100521.68;1678036;84;20942;-72
2022/01/17 11:54:21;;;;;;;7.43;1.10;;;;;;;3.60;85.78;100519.53;1676068;84;20954;-71
2022/01/17 11:57:02;;;;;;;3.08;0.95;;;;;;;3.59;85.56;100531.87;1671171;85;21462;-75
2022/01/17 11:59:40;;;;;;;1.95;1.30;;;;;;;3.61;85.76;100527.64;1678519;84;21101;-72
2022/01/17 12:02:33;;;;;;;4.97;1.20;;;;;;;3.61;85.70;100523.38;1670995;85;21524;-72
2022/01/17 12:05:12;;;;;;;4.85;1.17;;;;;;;3.63;85.76;100529.79;1670250;85;21497;-72
2022/01/17 12:07:54;;;;;;;5.80;1.40;;;;;;;3.62;85.72;100526.80;1678604;84;21481;-72
2022/01/17 12:10:38;;;;;;;5.05;1.17;;;;;;;3.60;85.49;100547.23;1676862;83;21434;-72
2022/01/17 12:13:23;;;;;;;5.22;1.10;;;;;;;3.61;85.46;100582.19;1679818;84;21382;-72
2022/01/17 12:16:21;;;;;;;9.63;1.60;;;;;;;3.63;85.38;100605.22;1676925;83;21498;-72
2022/01/17 12:18:52;;;;;;;3.87;0.95;;;;;;;3.63;85.28;100616.72;1672387;85;20927;-72
2022/01/17 12:21:28;;;;;;;4.00;0.90;;;;;;;3.62;84.89;100618.84;1622323;85;29371;-72
2022/01/17 12:24:20;;;;;;;4.45;1.10;;;;;;;3.62;84.88;100654.21;1591930;88;20939;-72
2022/01/17 12:27:04;;;;;;;5.03;1.57;;;;;;;3.60;84.83;100650.77;1601275;88;21013;-72
2022/01/17 12:29:57;;;;;;;4.58;1.20;;;;;;;3.58;84.52;100661.41;1589212;88;20982;-72
2022/01/17 12:32:34;;;;;;;6.05;1.10;;;;;;;3.57;84.39;100663.52;1596792;88;20998;-72
2022/01/17 12:35:08;;;;;;;5.30;1.05;;;;;;;3.55;83.64;100667.75;1600988;88;20978;-72
2022/01/17 12:37:45;;;;;;;4.62;1.27;;;;;;;3.54;83.93;100680.09;1599934;88;21529;-72
2022/01/17 12:40:31;;;;;;;2.37;1.05;;;;;;;3.54;84.17;100658.78;1597465;88;22370;-72
2022/01/17 12:43:07;;;;;;;7.10;1.45;;;;;;;3.54;84.01;100654.95;1590544;88;21124;-72
2022/01/17 12:45:41;;;;;;;4.65;1.37;;;;;;;3.53;83.95;100668.57;1595305;88;21105;-72
2022/01/17 12:48:18;;;;;;;5.78;0.82;;;;;;;3.53;84.02;100668.57;1595319;88;21113;-72
2022/01/17 12:50:47;;;;;;;3.58;1.27;;;;;;;3.52;83.96;100680.91;1582489;89;22269;-72
2022/01/17 12:53:17;;;;;;;2.58;0.72;;;;;;;3.52;83.77;100684.75;1584901;88;21135;-72
2022/01/17 12:55:52;;;;;;;5.85;1.15;;;;;;;3.50;83.64;100695.38;1590036;88;21605;-72
2022/01/17 12:58:23;;;;;;;2.87;1.30;;;;;;;3.48;83.38;100693.21;1577769;88;21012;-72
2022/01/17 13:00:56;;;;;;;3.65;1.40;;;;;;;3.47;83.37;100700.44;1596989;88;21585;-72
2022/01/17 13:03:25;;;;;;;4.15;1.10;;;;;;;3.45;83.21;100702.11;1589420;88;21146;-72
2022/01/17 13:05:53;;;;;;;5.25;1.00;;;;;;;3.43;82.83;100701.23;1600139;88;21921;-72
2022/01/17 13:08:22;;;;;;;4.33;1.25;;;;;;;3.39;82.02;100708.41;1605202;88;21496;-72
2022/01/17 13:10:49;;;;;;;3.50;1.42;;;;;;;3.35;82.00;100716.45;1601978;88;21417;-72
2022/01/17 13:13:16;;;;;;;4.25;1.35;;;;;;;3.37;82.31;100713.92;1605234;88;21138;-72
2022/01/17 13:16:07;;;;;;;2.98;1.07;;;;;;;3.35;82.05;100721.56;1600563;88;21053;-71
2022/01/17 13:18:33;;;;;;;4.15;1.10;;;;;;;3.33;82.17;100735.59;1598183;88;21113;-72
2022/01/17 13:21:02;;;;;;;2.83;1.60;;;;;;;3.32;81.98;100750.49;1605552;88;21108;-72
2022/01/17 13:23:40;;;;;;;4.47;0.95;;;;;;;3.32;81.95;100764.97;1601597;88;21001;-72